createdAt,value
2022-09-07T00:01:08.367Z,82.90
2022-09-07T00:03:37.136Z,82.90
2022-09-07T00:06:08.212Z,82.70
2022-09-07T00:08:38.536Z,83.00
2022-09-07T00:11:09.076Z,83.60
2022-09-07T00:13:39.475Z,83.40
2022-09-07T00:16:09.459Z,83.40
2022-09-07T00:18:40.276Z,83.40
2022-09-07T00:21:12.258Z,83.30
2022-09-07T00:23:41.932Z,83.30
2022-09-07T00:26:12.044Z,83.40
2022-09-07T00:28:40.989Z,83.30
2022-09-07T00:31:12.876Z,83.30
2022-09-07T00:33:41.424Z,83.30
2022-09-07T00:36:10.265Z,83.40
2022-09-07T00:38:38.690Z,83.50
2022-09-07T00:41:09.163Z,83.60
2022-09-07T00:43:39.390Z,83.70
2022-09-07T00:46:11.716Z,83.80
2022-09-07T00:48:45.438Z,84.00
2022-09-07T00:51:18.045Z,83.80
2022-09-07T00:53:53.623Z,83.60
2022-09-07T00:56:27.477Z,83.50
2022-09-07T00:58:56.168Z,83.70
2022-09-07T01:01:24.887Z,84.00
2022-09-07T01:03:55.190Z,84.00
2022-09-07T01:06:27.504Z,84.00
2022-09-07T01:08:57.474Z,84.20
2022-09-07T01:11:27.122Z,84.00
2022-09-07T01:13:58.051Z,84.40
2022-09-07T01:16:49.456Z,84.90
2022-09-07T01:19:43.456Z,85.70
2022-09-07T01:22:28.395Z,86.00
2022-09-07T01:25:06.641Z,86.60
2022-09-07T01:28:02.867Z,86.50
2022-09-07T01:30:32.824Z,86.90
2022-09-07T01:33:16.172Z,87.10
2022-09-07T01:35:53.380Z,87.80
2022-09-07T01:38:28.285Z,88.10
2022-09-07T01:41:03.136Z,88.30
2022-09-07T01:43:40.280Z,88.50
2022-09-07T01:46:14.952Z,88.90
2022-09-07T01:48:45.991Z,89.10
2022-09-07T01:51:14.580Z,89.40
2022-09-07T01:53:46.139Z,89.60
2022-09-07T01:56:16.655Z,89.90
2022-09-07T01:58:48.847Z,90.00
2022-09-07T02:01:24.145Z,90.00
2022-09-07T02:03:55.156Z,90.10
2022-09-07T02:06:31.210Z,90.20
2022-09-07T02:09:04.123Z,90.60
2022-09-07T02:11:36.851Z,90.40
2022-09-07T02:14:11.149Z,90.50
2022-09-07T02:16:48.555Z,90.70
2022-09-07T02:19:20.057Z,90.80
2022-09-07T02:21:53.739Z,90.90
2022-09-07T02:24:27.286Z,91.00
2022-09-07T02:26:58.109Z,91.10
2022-09-07T02:29:30.893Z,91.30
2022-09-07T02:31:59.388Z,91.30
2022-09-07T02:34:27.738Z,91.30
2022-09-07T02:36:56.641Z,91.40
2022-09-07T02:39:24.828Z,91.40
2022-09-07T02:41:52.960Z,91.50
2022-09-07T02:44:24.250Z,91.60
2022-09-07T02:47:04.678Z,91.60
2022-09-07T02:49:46.635Z,91.60
2022-09-07T02:52:23.568Z,91.60
2022-09-07T02:55:03.545Z,91.60
2022-09-07T02:57:41.224Z,91.60
2022-09-07T03:00:11.868Z,91.60
2022-09-07T03:02:48.799Z,91.50
2022-09-07T03:05:21.794Z,91.40
2022-09-07T03:07:56.535Z,91.50
2022-09-07T03:10:25.423Z,91.60
2022-09-07T03:12:53.772Z,91.60
2022-09-07T03:15:24.012Z,91.70
2022-09-07T03:17:54.056Z,91.80
2022-09-07T03:20:22.796Z,91.80
2022-09-07T03:22:52.617Z,91.80
2022-09-07T03:25:21.969Z,91.80
2022-09-07T03:27:50.120Z,91.90
2022-09-07T03:30:18.517Z,91.80
2022-09-07T03:32:47.505Z,91.80
2022-09-07T03:35:17.351Z,91.90
2022-09-07T03:37:45.530Z,92.20
2022-09-07T03:40:15.019Z,91.90
2022-09-07T03:42:43.419Z,92.20
2022-09-07T03:45:12.316Z,91.80
2022-09-07T03:47:41.118Z,91.80
2022-09-07T03:50:10.050Z,91.80
2022-09-07T03:52:39.585Z,91.80
2022-09-07T03:55:08.558Z,91.80
2022-09-07T03:57:36.776Z,91.70
2022-09-07T04:00:06.849Z,91.60
2022-09-07T04:02:40.795Z,91.60
2022-09-07T04:05:09.847Z,91.60
2022-09-07T04:07:39.419Z,91.60
2022-09-07T04:10:08.692Z,91.60
2022-09-07T04:12:36.859Z,91.70
2022-09-07T04:15:05.564Z,91.60
2022-09-07T04:17:33.743Z,91.50
2022-09-07T04:20:02.036Z,91.50
2022-09-07T04:22:30.211Z,91.50
2022-09-07T04:24:59.741Z,91.40
2022-09-07T04:27:27.899Z,91.40
2022-09-07T04:29:56.041Z,91.40
2022-09-07T04:32:24.288Z,91.40
2022-09-07T04:34:54.364Z,91.50
2022-09-07T04:37:22.695Z,91.40
2022-09-07T04:39:51.883Z,91.40
2022-09-07T04:42:21.504Z,91.40
2022-09-07T04:44:50.431Z,91.40
2022-09-07T04:47:18.749Z,91.30
2022-09-07T04:49:46.910Z,91.30
2022-09-07T04:52:15.215Z,91.30
2022-09-07T04:54:43.574Z,91.30
2022-09-07T04:57:12.164Z,91.20
2022-09-07T04:59:41.691Z,91.10
2022-09-07T05:02:09.968Z,91.30
2022-09-07T05:04:38.209Z,91.10
2022-09-07T05:07:06.759Z,91.20
2022-09-07T05:09:35.210Z,91.20
2022-09-07T05:12:04.002Z,91.10
2022-09-07T05:14:32.149Z,91.20
2022-09-07T05:17:01.882Z,91.10
2022-09-07T05:19:30.229Z,91.10
2022-09-07T05:21:58.928Z,91.10
2022-09-07T05:24:27.544Z,91.10
2022-09-07T05:26:55.710Z,91.10
2022-09-07T05:32:13.955Z,91.00
2022-09-07T05:34:42.088Z,91.00
2022-09-07T05:37:10.374Z,91.00
2022-09-07T05:39:38.564Z,91.00
2022-09-07T05:42:06.843Z,91.00
2022-09-07T05:47:10.571Z,91.00
2022-09-07T05:49:40.194Z,91.00
2022-09-07T05:52:08.427Z,91.10
2022-09-07T05:54:36.782Z,91.10
2022-09-07T05:57:05.194Z,91.00
2022-09-07T05:59:33.528Z,91.00
2022-09-07T06:02:01.737Z,91.00
2022-09-07T06:04:30.024Z,91.00
2022-09-07T06:07:20.488Z,91.00
2022-09-07T06:12:38.702Z,91.10
2022-09-07T06:15:09.133Z,91.40
2022-09-07T06:17:37.507Z,91.40
2022-09-07T06:20:06.298Z,91.40
2022-09-07T06:22:38.079Z,91.40
2022-09-07T06:25:07.168Z,91.40
2022-09-07T06:27:35.400Z,91.40
2022-09-07T06:30:03.605Z,91.40
2022-09-07T06:32:47.354Z,91.30
2022-09-07T06:35:15.999Z,91.40
2022-09-07T06:37:45.828Z,91.50
2022-09-07T06:40:14.294Z,91.40
2022-09-07T06:42:42.453Z,91.50
2022-09-07T06:45:12.223Z,91.50
2022-09-07T06:47:40.970Z,91.40
2022-09-07T06:50:10.375Z,91.30
2022-09-07T06:55:29.272Z,91.40
2022-09-07T06:57:57.477Z,91.40
2022-09-07T07:00:25.995Z,91.50
2022-09-07T07:02:54.195Z,91.50
2022-09-07T07:05:22.401Z,91.60
2022-09-07T07:07:50.554Z,91.60
2022-09-07T07:10:23.605Z,91.60
2022-09-07T07:12:57.566Z,91.50
2022-09-07T07:15:28.761Z,91.90
2022-09-07T07:18:05.116Z,91.50
2022-09-07T07:20:43.140Z,91.50
2022-09-07T07:23:13.156Z,91.60
2022-09-07T07:25:41.328Z,91.50
2022-09-07T07:31:00.725Z,91.50
2022-09-07T07:33:31.980Z,91.60
2022-09-07T07:36:12.282Z,91.70
2022-09-07T07:44:21.463Z,91.80
2022-09-07T07:46:50.213Z,91.70
2022-09-07T07:49:18.583Z,91.80
2022-09-07T07:54:36.731Z,91.80
2022-09-07T07:57:05.492Z,91.80
2022-09-07T07:59:35.048Z,91.80
2022-09-07T08:02:05.103Z,91.80
2022-09-07T08:04:34.029Z,91.80
2022-09-07T08:07:08.326Z,91.80
2022-09-07T08:09:38.225Z,91.80
2022-09-07T08:12:06.611Z,91.80
2022-09-07T08:14:40.742Z,91.80
2022-09-07T08:17:09.482Z,91.80
2022-09-07T08:19:37.551Z,91.80
2022-09-07T08:22:05.627Z,91.80
2022-09-07T08:24:33.727Z,91.90
2022-09-07T08:27:01.961Z,91.90
2022-09-07T08:29:33.508Z,91.90
2022-09-07T08:32:06.125Z,91.90
2022-09-07T08:34:37.154Z,91.90
2022-09-07T08:37:05.504Z,92.00
2022-09-07T08:39:33.612Z,92.00
2022-09-07T08:42:19.402Z,92.00
2022-09-07T08:44:51.570Z,92.00
2022-09-07T08:47:28.927Z,92.10
2022-09-07T08:50:02.351Z,92.00
2022-09-07T08:52:39.886Z,92.00
2022-09-07T08:55:15.293Z,92.10
2022-09-07T08:57:48.128Z,92.10
2022-09-07T09:00:18.025Z,92.20
2022-09-07T09:03:28.712Z,92.50
2022-09-07T09:05:45.873Z,92.20
2022-09-07T09:08:26.766Z,92.20
2022-09-07T09:11:02.639Z,92.30
2022-09-07T09:13:43.193Z,92.40
2022-09-07T09:16:15.431Z,92.30
2022-09-07T09:18:55.329Z,92.40
2022-09-07T09:21:23.448Z,92.40
2022-09-07T09:23:56.078Z,92.40
2022-09-07T09:26:26.336Z,92.70
2022-09-07T09:28:55.041Z,92.40
2022-09-07T09:31:25.892Z,92.40
2022-09-07T09:34:11.453Z,92.40
2022-09-07T09:36:46.941Z,92.40
2022-09-07T09:39:30.752Z,92.40
2022-09-07T09:42:02.711Z,92.60
2022-09-07T09:44:35.300Z,92.50
2022-09-07T09:49:54.090Z,92.50
2022-09-07T09:52:29.607Z,92.60
2022-09-07T09:55:17.269Z,92.50
2022-09-07T10:04:06.280Z,92.70
2022-09-07T10:06:35.908Z,92.70
2022-09-07T10:09:04.512Z,92.70
2022-09-07T10:14:34.631Z,92.80
2022-09-07T10:17:11.039Z,92.70
2022-09-07T10:19:41.489Z,92.70
2022-09-07T10:22:32.966Z,92.80
2022-09-07T10:25:01.944Z,92.80
2022-09-07T10:27:33.981Z,93.10
2022-09-07T10:30:02.653Z,92.80
2022-09-07T10:32:43.612Z,92.70
2022-09-07T10:35:18.991Z,92.70
2022-09-07T10:37:54.532Z,92.80
2022-09-07T10:40:32.695Z,92.80
2022-09-07T10:43:22.811Z,92.80
2022-09-07T10:46:10.520Z,92.80
2022-09-07T10:48:45.490Z,92.80
2022-09-07T10:51:19.032Z,92.70
2022-09-07T10:56:58.181Z,92.80
2022-09-07T11:02:34.091Z,92.70
2022-09-07T11:05:12.639Z,92.80
2022-09-07T11:08:02.239Z,92.80
2022-09-07T11:10:41.879Z,92.70
2022-09-07T11:13:15.522Z,92.60
2022-09-07T11:15:49.558Z,92.70
2022-09-07T11:18:21.477Z,92.80
2022-09-07T11:20:55.257Z,92.70
2022-09-07T11:23:29.118Z,92.70
2022-09-07T11:26:07.429Z,92.70
2022-09-07T11:28:45.355Z,92.60
2022-09-07T11:31:20.999Z,92.50
2022-09-07T11:36:51.829Z,92.50
2022-09-07T11:39:26.083Z,92.50
2022-09-07T11:42:42.630Z,92.40
2022-09-07T11:44:54.036Z,92.40
2022-09-07T11:47:28.240Z,92.40
2022-09-07T11:49:59.386Z,92.30
2022-09-07T11:52:35.440Z,92.20
2022-09-07T11:55:08.845Z,92.20
2022-09-07T11:57:49.598Z,92.20
2022-09-07T12:00:21.425Z,92.00
2022-09-07T12:03:19.763Z,92.00
2022-09-07T12:06:27.092Z,91.90
2022-09-07T12:09:07.651Z,91.60
2022-09-07T12:12:07.096Z,91.60
2022-09-07T12:14:48.816Z,91.60
2022-09-07T12:17:41.553Z,91.60
2022-09-07T12:20:15.508Z,91.40
2022-09-07T12:23:02.242Z,91.20
2022-09-07T12:25:33.683Z,91.00
2022-09-07T12:28:02.143Z,91.10
2022-09-07T12:30:59.867Z,91.00
2022-09-07T12:33:31.356Z,90.70
2022-09-07T12:36:00.948Z,90.60
2022-09-07T12:39:07.174Z,90.50
2022-09-07T12:41:44.778Z,90.40
2022-09-07T12:44:33.172Z,90.40
2022-09-07T12:47:03.843Z,90.20
2022-09-07T12:50:13.788Z,90.20
2022-09-07T12:52:48.478Z,90.20
2022-09-07T12:56:15.523Z,95.90
2022-09-07T12:58:36.805Z,99.90
2022-09-07T13:01:16.608Z,99.90
2022-09-07T13:04:00.405Z,99.90
2022-09-07T13:09:33.987Z,99.90
2022-09-07T13:12:07.158Z,99.90
2022-09-07T13:14:39.515Z,99.90
2022-09-07T13:17:41.541Z,99.90
2022-09-07T13:20:30.190Z,99.90
2022-09-07T13:23:20.622Z,99.90
2022-09-07T13:25:51.630Z,99.90
2022-09-07T13:28:40.354Z,99.90
2022-09-07T13:31:41.696Z,99.90
2022-09-07T13:34:46.708Z,99.90
2022-09-07T13:37:20.224Z,99.90
2022-09-07T13:39:52.568Z,99.90
2022-09-07T13:42:25.385Z,99.90
2022-09-07T13:44:56.264Z,99.90
2022-09-07T13:47:38.661Z,99.90
2022-09-07T13:50:21.358Z,99.90
2022-09-07T13:53:08.922Z,99.90
2022-09-07T13:55:43.799Z,99.90
2022-09-07T13:58:17.770Z,99.90
2022-09-07T14:00:57.221Z,99.90
2022-09-07T14:03:27.431Z,99.90
2022-09-07T14:06:14.913Z,99.90
2022-09-07T14:08:49.293Z,99.90
2022-09-07T14:11:22.186Z,99.90
2022-09-07T14:14:13.661Z,99.90
2022-09-07T14:16:43.725Z,99.90
2022-09-07T14:19:24.054Z,99.90
2022-09-07T14:22:01.203Z,99.90
2022-09-07T14:24:35.095Z,99.90
2022-09-07T14:27:04.123Z,99.90
2022-09-07T14:29:34.096Z,99.90
2022-09-07T14:32:04.352Z,99.90
2022-09-07T14:34:35.604Z,99.90
2022-09-07T14:37:06.943Z,99.90
2022-09-07T14:39:40.138Z,99.90
2022-09-07T14:42:08.858Z,99.90
2022-09-07T14:44:40.214Z,99.90
2022-09-07T14:47:19.919Z,99.90
2022-09-07T14:49:52.096Z,99.90
2022-09-07T14:52:30.016Z,99.90
2022-09-07T14:55:00.891Z,99.90
2022-09-07T14:57:32.344Z,99.90
2022-09-07T15:00:28.633Z,99.90
2022-09-07T15:02:56.641Z,99.90
2022-09-07T15:05:27.478Z,99.90
2022-09-07T15:07:57.992Z,99.90
2022-09-07T15:10:37.308Z,99.90
2022-09-07T15:13:23.043Z,99.90
2022-09-07T15:15:58.653Z,99.90
2022-09-07T15:18:50.571Z,99.90
2022-09-07T15:21:18.684Z,99.90
2022-09-07T15:23:50.840Z,99.90
2022-09-07T15:29:11.456Z,99.90
2022-09-07T15:31:42.207Z,99.90
2022-09-07T15:34:13.578Z,99.90
2022-09-07T15:36:43.360Z,99.90
2022-09-07T15:39:17.923Z,99.90
2022-09-07T15:41:47.927Z,99.90
2022-09-07T15:44:17.908Z,99.90
2022-09-07T15:49:37.179Z,99.90
2022-09-07T15:52:07.161Z,99.90
2022-09-07T15:54:39.223Z,99.90
2022-09-07T15:59:57.062Z,99.90
2022-09-07T16:05:13.413Z,99.90
2022-09-07T16:10:31.656Z,99.90
2022-09-07T16:13:03.696Z,99.90
2022-09-07T16:15:45.825Z,99.90
2022-09-07T16:18:18.159Z,99.90
2022-09-07T16:20:47.309Z,99.90
2022-09-07T16:23:17.437Z,99.90
2022-09-07T16:25:57.050Z,99.90
2022-09-07T16:28:27.669Z,99.90
2022-09-07T16:30:56.379Z,99.90
2022-09-07T16:33:33.051Z,99.90
2022-09-07T16:36:06.793Z,99.90
2022-09-07T16:38:50.883Z,99.90
2022-09-07T16:41:20.767Z,99.90
2022-09-07T16:43:50.826Z,99.90
2022-09-07T16:46:21.338Z,99.90
2022-09-07T16:48:49.879Z,99.90
2022-09-07T16:51:19.687Z,99.90
2022-09-07T16:53:48.827Z,99.90
2022-09-07T16:56:18.652Z,99.90
2022-09-07T16:58:48.793Z,99.90
2022-09-07T17:01:20.597Z,99.90
2022-09-07T17:03:50.281Z,99.90
2022-09-07T17:06:20.196Z,99.90
2022-09-07T17:08:49.465Z,99.90
2022-09-07T17:11:19.587Z,99.90
2022-09-07T17:13:48.114Z,99.90
2022-09-07T17:16:19.604Z,99.90
2022-09-07T17:21:39.164Z,99.90
2022-09-07T17:24:09.476Z,99.90
2022-09-07T17:26:37.835Z,99.90
2022-09-07T17:29:07.184Z,99.90
2022-09-07T17:34:26.393Z,99.90
2022-09-07T17:36:54.446Z,99.90
2022-09-07T17:39:22.472Z,99.90
2022-09-07T17:41:52.666Z,99.90
2022-09-07T17:44:21.397Z,99.90
2022-09-07T17:46:50.848Z,99.90
2022-09-07T17:49:18.975Z,99.90
2022-09-07T17:51:47.238Z,99.90
2022-09-07T17:54:17.397Z,99.90
2022-09-07T17:56:46.127Z,99.90
2022-09-07T18:02:03.992Z,99.90
2022-09-07T18:04:32.019Z,99.90
2022-09-07T18:07:00.011Z,99.90
2022-09-07T18:09:28.113Z,99.90
2022-09-07T18:11:56.115Z,99.90
2022-09-07T18:14:24.251Z,99.90
2022-09-07T18:16:52.607Z,99.90
2022-09-07T18:19:22.014Z,99.90
2022-09-07T18:21:50.574Z,99.90
2022-09-07T18:24:22.843Z,99.90
2022-09-07T18:26:52.839Z,99.90
2022-09-07T18:29:32.868Z,99.90
2022-09-07T18:32:04.631Z,99.90
2022-09-07T18:34:35.290Z,99.90
2022-09-07T18:37:03.346Z,99.90
2022-09-07T18:39:32.258Z,99.90
2022-09-07T18:42:00.326Z,99.90
2022-09-07T18:47:23.227Z,99.90
2022-09-07T18:49:57.471Z,99.90
2022-09-07T18:55:13.616Z,99.90
2022-09-07T18:57:41.637Z,99.90
2022-09-07T19:00:11.954Z,99.90
2022-09-07T19:02:40.053Z,99.90
2022-09-07T19:07:59.398Z,99.90
2022-09-07T19:10:27.451Z,99.90
2022-09-07T19:12:56.140Z,99.90
2022-09-07T19:15:24.118Z,99.90
2022-09-07T19:17:52.467Z,99.90
2022-09-07T19:20:21.947Z,99.90
2022-09-07T19:22:49.946Z,99.90
2022-09-07T19:25:19.284Z,99.90
2022-09-07T19:27:47.284Z,99.90
2022-09-07T19:30:15.541Z,99.90
2022-09-07T19:32:43.727Z,99.90
2022-09-07T19:35:12.123Z,99.90
2022-09-07T19:37:41.520Z,99.90
2022-09-07T19:40:14.797Z,99.90
2022-09-07T19:42:46.695Z,99.90
2022-09-07T19:45:15.472Z,99.90
2022-09-07T19:47:43.537Z,99.90
2022-09-07T19:50:11.624Z,99.90
2022-09-07T19:52:41.010Z,99.90
2022-09-07T19:55:09.911Z,99.90
2022-09-07T19:57:38.005Z,99.90
2022-09-07T20:00:07.061Z,99.90
2022-09-07T20:02:39.965Z,99.90
2022-09-07T20:05:08.581Z,99.90
2022-09-07T20:07:36.655Z,99.90
2022-09-07T20:10:06.795Z,99.90
2022-09-07T20:12:34.832Z,99.90
2022-09-07T20:15:02.839Z,99.90
2022-09-07T20:17:35.194Z,99.90
2022-09-07T20:20:04.146Z,99.90
2022-09-07T20:22:32.894Z,99.90
2022-09-07T20:25:00.949Z,99.90
2022-09-07T20:27:30.548Z,99.90
2022-09-07T20:29:58.554Z,99.90
2022-09-07T20:32:28.133Z,99.90
2022-09-07T20:34:57.205Z,99.90
2022-09-07T20:37:27.688Z,99.90
2022-09-07T20:39:55.901Z,99.90
2022-09-07T20:42:24.024Z,99.90
2022-09-07T20:44:53.506Z,99.90
2022-09-07T20:47:21.489Z,99.90
2022-09-07T20:49:49.499Z,99.90
2022-09-07T20:52:17.597Z,99.90
2022-09-07T20:54:45.676Z,99.90
2022-09-07T20:57:14.098Z,99.90
2022-09-07T20:59:42.206Z,99.90
2022-09-07T21:02:11.678Z,99.90
2022-09-07T21:04:39.754Z,99.90
2022-09-07T21:07:07.765Z,99.90
2022-09-07T21:09:36.054Z,99.90
2022-09-07T21:12:04.420Z,99.90
2022-09-07T21:14:32.471Z,99.90
2022-09-07T21:17:00.436Z,99.90
2022-09-07T21:19:29.752Z,99.90
2022-09-07T21:21:57.780Z,99.90
2022-09-07T21:24:26.327Z,99.90
2022-09-07T21:26:54.345Z,99.90
2022-09-07T21:29:24.504Z,99.90
2022-09-07T21:31:54.069Z,99.90
2022-09-07T21:34:22.994Z,99.90
2022-09-07T21:36:53.019Z,99.90
2022-09-07T21:39:21.711Z,99.90
2022-09-07T21:41:49.734Z,99.90
2022-09-07T21:44:18.255Z,99.90
2022-09-07T21:46:46.663Z,99.90
2022-09-07T21:49:14.764Z,99.90
2022-09-07T21:51:42.751Z,99.90
2022-09-07T21:54:12.136Z,99.90
2022-09-07T21:56:44.426Z,99.90
2022-09-07T21:59:14.696Z,99.90
2022-09-07T22:01:42.884Z,99.90
2022-09-07T22:04:11.042Z,99.90
2022-09-07T22:06:39.876Z,99.90
2022-09-07T22:09:08.496Z,99.90
2022-09-07T22:11:37.990Z,99.90
2022-09-07T22:14:07.587Z,99.90
2022-09-07T22:16:36.538Z,99.90
2022-09-07T22:19:04.827Z,99.90
2022-09-07T22:21:33.264Z,99.90
2022-09-07T22:24:03.455Z,99.90
2022-09-07T22:26:33.299Z,99.90
2022-09-07T22:29:02.707Z,99.90
2022-09-07T22:31:32.621Z,99.90
2022-09-07T22:34:01.654Z,99.90
2022-09-07T22:36:32.378Z,99.90
2022-09-07T22:39:02.183Z,99.90
2022-09-07T22:41:32.409Z,99.90
2022-09-07T22:44:01.950Z,99.90
2022-09-07T22:46:32.010Z,99.90
2022-09-07T22:49:00.184Z,99.90
2022-09-07T22:51:28.843Z,99.90
2022-09-07T22:53:57.387Z,99.90
2022-09-07T22:56:28.221Z,99.90
2022-09-07T22:58:58.395Z,99.90
2022-09-07T23:01:28.993Z,99.90
2022-09-07T23:03:57.205Z,99.90
2022-09-07T23:06:27.357Z,99.90
2022-09-07T23:08:57.247Z,99.90
2022-09-07T23:11:25.679Z,99.90
2022-09-07T23:13:54.870Z,99.90
2022-09-07T23:16:23.177Z,99.90
2022-09-07T23:18:52.839Z,99.90
2022-09-07T23:21:21.133Z,99.90
2022-09-07T23:23:53.051Z,99.90
2022-09-07T23:26:22.177Z,99.90
2022-09-07T23:28:53.445Z,99.90
2022-09-07T23:31:22.000Z,99.90
2022-09-07T23:33:51.886Z,99.90
2022-09-07T23:36:20.652Z,99.90
2022-09-07T23:38:49.661Z,99.90
2022-09-07T23:41:18.370Z,99.90
2022-09-07T23:43:46.827Z,99.90
2022-09-07T23:46:15.403Z,99.90
2022-09-07T23:48:44.875Z,99.90
2022-09-07T23:51:16.207Z,99.90
2022-09-07T23:53:45.856Z,99.90
2022-09-07T23:56:14.140Z,99.90
2022-09-07T23:58:42.349Z,99.90
